createdAt,value
2018-08-09T00:01:23.819Z,32.07
2018-08-09T00:03:51.233Z,21.60
2018-08-09T00:06:18.594Z,17.67
2018-08-09T00:08:46.614Z,16.23
2018-08-09T00:11:14.073Z,22.53
2018-08-09T00:13:41.520Z,13.83
2018-08-09T00:16:08.850Z,19.43
2018-08-09T00:18:37.124Z,17.53
2018-08-09T00:21:04.694Z,13.83
2018-08-09T00:23:32.160Z,13.63
2018-08-09T00:25:59.653Z,11.23
2018-08-09T00:28:27.368Z,9.80
2018-08-09T00:30:54.907Z,5.90
2018-08-09T00:33:22.297Z,5.63
2018-08-09T00:35:50.937Z,10.07
2018-08-09T00:38:18.336Z,9.40
2018-08-09T00:40:46.161Z,10.03
2018-08-09T00:43:14.634Z,12.10
2018-08-09T00:45:42.008Z,8.27
2018-08-09T00:48:09.432Z,6.90
2018-08-09T00:50:36.866Z,6.43
2018-08-09T00:53:04.835Z,6.67
2018-08-09T00:55:32.153Z,7.10
2018-08-09T00:57:59.491Z,6.80
2018-08-09T01:00:26.837Z,7.00
2018-08-09T01:02:54.273Z,6.83
2018-08-09T01:05:22.618Z,7.20
2018-08-09T01:07:49.979Z,6.77
2018-08-09T01:10:17.326Z,6.23
2018-08-09T01:12:44.730Z,6.17
2018-08-09T01:15:12.212Z,5.95
2018-08-09T01:17:40.284Z,5.83
2018-08-09T01:20:07.815Z,6.20
2018-08-09T01:22:35.579Z,6.80
2018-08-09T01:25:03.339Z,5.97
2018-08-09T01:27:30.681Z,6.70
2018-08-09T01:29:58.253Z,5.80
2018-08-09T01:32:25.633Z,7.00
2018-08-09T01:34:53.038Z,6.17
2018-08-09T01:37:20.346Z,6.37
2018-08-09T01:39:47.718Z,6.37
2018-08-09T01:42:20.858Z,6.60
2018-08-09T01:44:48.408Z,6.40
2018-08-09T01:47:15.774Z,5.90
2018-08-09T01:59:28.118Z,5.40
2018-08-09T02:01:56.556Z,4.77
2018-08-09T02:04:24.030Z,6.00
2018-08-09T02:06:52.188Z,5.57
2018-08-09T02:09:24.868Z,6.93
2018-08-09T02:11:52.319Z,5.90
2018-08-09T02:14:19.630Z,5.55
2018-08-09T02:16:46.984Z,5.60
2018-08-09T02:19:14.594Z,5.30
2018-08-09T02:21:41.967Z,5.60
2018-08-09T02:24:09.370Z,5.50
2018-08-09T02:29:03.529Z,6.00
2018-08-09T02:31:31.196Z,5.73
2018-08-09T02:33:58.527Z,6.30
2018-08-09T02:36:26.648Z,5.17
2018-08-09T02:38:54.469Z,6.47
2018-08-09T02:41:21.945Z,6.30
2018-08-09T02:43:49.533Z,5.10
2018-08-09T02:46:17.247Z,5.77
2018-08-09T02:48:44.750Z,6.10
2018-08-09T02:51:12.093Z,8.20
2018-08-09T02:53:39.424Z,6.93
2018-08-09T02:56:06.758Z,5.40
2018-08-09T02:58:35.086Z,5.37
2018-08-09T03:01:02.492Z,5.80
2018-08-09T03:03:29.818Z,6.77
2018-08-09T03:05:57.116Z,7.57
2018-08-09T03:08:24.534Z,7.47
2018-08-09T03:10:52.567Z,7.27
2018-08-09T03:13:20.367Z,6.47
2018-08-09T03:15:47.699Z,6.50
2018-08-09T03:18:15.063Z,5.70
2018-08-09T03:20:42.875Z,5.37
2018-08-09T03:23:14.080Z,6.30
2018-08-09T03:25:41.453Z,6.07
2018-08-09T03:28:09.472Z,5.87
2018-08-09T03:30:36.789Z,5.73
2018-08-09T03:33:04.280Z,5.23
2018-08-09T03:35:31.628Z,5.80
2018-08-09T03:37:58.938Z,5.60
2018-08-09T03:40:26.314Z,5.40
2018-08-09T03:42:53.642Z,6.00
2018-08-09T03:45:21.192Z,5.43
2018-08-09T03:47:48.627Z,5.90
2018-08-09T03:50:16.646Z,6.40
2018-08-09T03:52:44.019Z,6.27
2018-08-09T03:55:12.142Z,5.93
2018-08-09T03:57:45.942Z,6.53
2018-08-09T04:00:13.463Z,6.37
2018-08-09T04:02:40.793Z,5.60
2018-08-09T04:05:09.015Z,5.47
2018-08-09T04:07:36.382Z,6.50
2018-08-09T04:10:04.205Z,6.03
2018-08-09T04:12:31.586Z,5.33
2018-08-09T04:14:59.627Z,7.13
2018-08-09T04:17:26.993Z,5.70
2018-08-09T04:19:54.442Z,5.80
2018-08-09T04:22:22.799Z,8.00
2018-08-09T04:24:50.335Z,7.27
2018-08-09T04:27:18.254Z,7.70
2018-08-09T04:29:46.447Z,7.17
2018-08-09T04:32:18.375Z,7.10
2018-08-09T04:34:45.825Z,7.10
2018-08-09T04:37:13.218Z,6.57
2018-08-09T04:39:40.724Z,6.90
2018-08-09T04:42:08.094Z,7.57
2018-08-09T04:44:36.068Z,6.73
2018-08-09T04:47:03.496Z,7.90
2018-08-09T04:49:30.793Z,6.87
2018-08-09T04:51:58.817Z,7.00
2018-08-09T04:54:26.346Z,6.73
2018-08-09T04:56:53.692Z,8.00
2018-08-09T04:59:20.973Z,7.27
2018-08-09T05:01:52.404Z,7.60
2018-08-09T05:04:19.778Z,6.83
2018-08-09T05:06:47.063Z,7.53
2018-08-09T05:09:14.341Z,7.80
2018-08-09T05:11:42.672Z,8.80
2018-08-09T05:14:10.345Z,7.63
2018-08-09T05:16:37.957Z,7.90
2018-08-09T05:19:05.548Z,8.60
2018-08-09T05:21:32.862Z,8.60
2018-08-09T05:24:00.791Z,9.73
2018-08-09T05:26:28.191Z,9.03
2018-08-09T05:28:55.501Z,9.17
2018-08-09T05:31:22.794Z,7.73
2018-08-09T05:33:50.125Z,7.97
2018-08-09T05:36:17.395Z,8.73
2018-08-09T05:38:44.716Z,9.07
2018-08-09T05:41:12.850Z,8.50
2018-08-09T05:43:40.395Z,8.50
2018-08-09T05:46:08.031Z,8.00
2018-08-09T05:48:35.338Z,7.73
2018-08-09T05:51:03.150Z,8.80
2018-08-09T05:53:30.435Z,8.60
2018-08-09T05:55:57.744Z,8.47
2018-08-09T05:58:25.120Z,9.20
2018-08-09T06:00:52.445Z,9.17
2018-08-09T06:03:19.861Z,9.20
2018-08-09T06:05:47.179Z,10.00
2018-08-09T06:08:14.457Z,9.90
2018-08-09T06:10:41.847Z,10.27
2018-08-09T06:13:09.833Z,9.97
2018-08-09T06:15:37.348Z,9.07
2018-08-09T06:18:05.173Z,9.43
2018-08-09T06:20:32.500Z,8.70
2018-08-09T06:22:59.806Z,10.00
2018-08-09T06:25:27.108Z,11.47
2018-08-09T06:27:54.716Z,10.20
2018-08-09T06:30:22.059Z,11.23
2018-08-09T06:32:49.569Z,12.30
2018-08-09T06:35:17.034Z,11.57
2018-08-09T06:37:44.408Z,13.17
2018-08-09T06:40:13.125Z,13.20
2018-08-09T06:42:41.226Z,12.30
2018-08-09T06:45:08.556Z,12.27
2018-08-09T06:47:36.119Z,12.10
2018-08-09T06:50:03.556Z,12.50
2018-08-09T06:52:31.466Z,13.40
2018-08-09T06:54:58.772Z,12.70
2018-08-09T06:57:26.126Z,13.40
2018-08-09T06:59:53.481Z,13.73
2018-08-09T07:02:20.843Z,14.57
2018-08-09T07:04:48.209Z,17.20
2018-08-09T07:07:16.071Z,14.70
2018-08-09T07:09:43.370Z,14.40
2018-08-09T07:12:10.745Z,15.43
2018-08-09T07:14:38.377Z,15.77
2018-08-09T07:17:05.694Z,16.70
2018-08-09T07:19:33.054Z,14.93
2018-08-09T07:22:00.350Z,18.27
2018-08-09T07:24:27.803Z,17.87
2018-08-09T07:26:55.192Z,15.90
2018-08-09T07:29:22.526Z,17.07
2018-08-09T07:31:50.502Z,20.53
2018-08-09T07:34:17.799Z,19.67
2018-08-09T07:36:45.132Z,23.83
2018-08-09T07:39:12.467Z,22.00
2018-08-09T07:41:40.603Z,23.10
2018-08-09T07:44:08.057Z,23.13
2018-08-09T07:46:35.550Z,22.40
2018-08-09T07:49:03.276Z,21.63
2018-08-09T07:51:30.774Z,24.37
2018-08-09T07:53:58.398Z,26.73
2018-08-09T07:56:25.818Z,23.37
2018-08-09T07:58:53.174Z,23.20
2018-08-09T08:01:20.611Z,22.63
2018-08-09T08:03:47.986Z,21.17
2018-08-09T08:06:15.370Z,20.97
2018-08-09T08:08:42.906Z,22.20
2018-08-09T08:11:10.260Z,22.77
2018-08-09T08:13:37.563Z,22.80
2018-08-09T08:16:04.979Z,23.90
2018-08-09T08:18:32.422Z,23.53
2018-08-09T08:20:59.747Z,23.40
2018-08-09T08:23:27.241Z,23.60
2018-08-09T08:25:54.570Z,22.90
2018-08-09T08:28:21.985Z,23.70
2018-08-09T08:30:49.346Z,25.17
2018-08-09T08:33:16.656Z,23.23
2018-08-09T08:35:44.054Z,22.60
2018-08-09T08:38:11.487Z,25.53
2018-08-09T08:40:38.817Z,25.03
2018-08-09T08:43:06.183Z,23.90
2018-08-09T08:45:33.675Z,23.57
2018-08-09T08:48:01.855Z,24.60
2018-08-09T08:50:29.146Z,25.10
2018-08-09T08:52:56.502Z,24.27
2018-08-09T08:55:23.802Z,25.00
2018-08-09T08:57:51.143Z,25.03
2018-08-09T09:00:18.519Z,23.90
2018-08-09T09:02:45.840Z,25.37
2018-08-09T09:05:13.433Z,24.40
2018-08-09T09:07:40.809Z,24.93
2018-08-09T09:10:09.579Z,23.27
2018-08-09T09:12:37.172Z,24.63
2018-08-09T09:15:06.834Z,24.77
2018-08-09T09:17:34.833Z,24.03
2018-08-09T09:20:02.447Z,25.60
2018-08-09T09:22:29.911Z,22.60
2018-08-09T09:24:57.255Z,23.00
2018-08-09T09:27:24.594Z,22.87
2018-08-09T09:29:52.194Z,23.43
2018-08-09T09:32:19.585Z,24.23
2018-08-09T09:34:47.243Z,25.00
2018-08-09T09:37:14.710Z,23.53
2018-08-09T09:39:42.017Z,24.77
2018-08-09T09:42:10.386Z,25.17
2018-08-09T09:44:38.346Z,29.60
2018-08-09T09:47:05.648Z,27.87
2018-08-09T09:49:32.962Z,27.90
2018-08-09T09:52:00.257Z,27.13
2018-08-09T09:54:27.673Z,26.97
2018-08-09T09:56:55.015Z,29.27
2018-08-09T09:59:22.313Z,27.07
2018-08-09T10:01:49.815Z,27.37
2018-08-09T10:04:17.199Z,26.90
2018-08-09T10:06:46.150Z,24.90
2018-08-09T10:09:14.296Z,24.70
2018-08-09T10:11:41.734Z,25.67
2018-08-09T10:14:09.089Z,25.93
2018-08-09T10:16:36.843Z,26.00
2018-08-09T10:19:04.199Z,25.50
2018-08-09T10:21:33.016Z,25.63
2018-08-09T10:24:04.862Z,27.67
2018-08-09T10:26:38.069Z,23.47
2018-08-09T10:29:07.022Z,24.00
2018-08-09T10:31:35.517Z,23.57
2018-08-09T10:34:03.791Z,25.30
2018-08-09T10:36:35.811Z,23.10
2018-08-09T10:39:05.157Z,22.43
2018-08-09T10:41:33.359Z,22.60
2018-08-09T10:44:05.814Z,24.47
2018-08-09T10:46:33.246Z,23.60
2018-08-09T10:49:01.129Z,24.17
2018-08-09T10:51:33.518Z,22.87
2018-08-09T10:54:00.862Z,24.30
2018-08-09T10:56:28.620Z,25.43
2018-08-09T10:58:56.662Z,24.83
2018-08-09T11:01:24.219Z,25.30
2018-08-09T11:03:52.703Z,24.53
2018-08-09T11:06:20.520Z,25.43
2018-08-09T11:08:49.131Z,24.80
2018-08-09T11:11:23.347Z,22.47
2018-08-09T11:13:51.082Z,22.70
2018-08-09T11:16:22.933Z,24.90
2018-08-09T11:18:51.743Z,25.37
2018-08-09T11:21:24.503Z,25.07
2018-08-09T11:23:53.828Z,23.60
2018-08-09T11:26:21.294Z,24.73
2018-08-09T11:28:50.435Z,24.33
2018-08-09T11:31:17.908Z,23.53
2018-08-09T11:33:46.430Z,21.63
2018-08-09T11:36:13.864Z,19.03
2018-08-09T11:38:41.259Z,17.27
2018-08-09T11:41:11.651Z,17.63
2018-08-09T11:43:39.065Z,16.77
2018-08-09T11:46:06.587Z,18.40
2018-08-09T11:48:34.111Z,18.80
2018-08-09T11:51:01.795Z,17.17
2018-08-09T11:53:29.795Z,17.70
2018-08-09T11:55:57.595Z,15.83
2018-08-09T11:58:25.536Z,16.97
2018-08-09T12:00:55.267Z,16.33
2018-08-09T12:03:23.008Z,16.03
2018-08-09T12:05:50.407Z,14.97
2018-08-09T12:08:17.855Z,15.30
2018-08-09T12:10:45.306Z,14.10
2018-08-09T12:13:13.022Z,14.10
2018-08-09T12:15:45.309Z,15.73
2018-08-09T12:18:12.901Z,14.20
2018-08-09T12:20:40.773Z,13.30
2018-08-09T12:23:08.335Z,12.87
2018-08-09T12:25:35.865Z,13.20
2018-08-09T12:28:03.275Z,12.10
2018-08-09T12:30:30.660Z,12.37
2018-08-09T12:32:58.014Z,13.37
2018-08-09T12:35:25.362Z,11.30
2018-08-09T12:37:52.847Z,12.03
2018-08-09T12:40:20.203Z,11.37
2018-08-09T12:42:47.532Z,11.57
2018-08-09T12:45:15.024Z,11.27
2018-08-09T12:47:42.338Z,11.00
2018-08-09T12:50:13.201Z,12.20
2018-08-09T12:52:41.774Z,11.73
2018-08-09T12:55:09.799Z,12.23
2018-08-09T12:57:37.276Z,10.70
2018-08-09T13:00:05.569Z,12.30
2018-08-09T13:02:32.893Z,11.20
2018-08-09T13:05:00.954Z,10.70
2018-08-09T13:07:28.267Z,11.17
2018-08-09T13:09:56.085Z,11.10
2018-08-09T13:12:23.443Z,10.80
2018-08-09T13:14:50.774Z,10.60
2018-08-09T13:17:18.886Z,11.43
2018-08-09T13:19:46.256Z,11.00
2018-08-09T13:22:13.763Z,10.27
2018-08-09T13:24:41.348Z,10.10
2018-08-09T13:27:08.650Z,10.80
2018-08-09T13:29:36.260Z,11.07
2018-08-09T13:32:03.621Z,11.23
2018-08-09T13:34:30.967Z,9.93
2018-08-09T13:36:58.284Z,10.87
2018-08-09T13:39:26.490Z,9.77
2018-08-09T13:41:54.532Z,11.60
2018-08-09T13:44:21.827Z,10.03
2018-08-09T13:46:49.160Z,11.03
2018-08-09T13:49:16.534Z,10.20
2018-08-09T13:51:43.831Z,9.97
2018-08-09T13:54:11.657Z,10.03
2018-08-09T13:56:38.970Z,8.40
2018-08-09T13:59:06.347Z,8.80
2018-08-09T14:01:33.754Z,7.60
2018-08-09T14:04:01.182Z,7.03
2018-08-09T14:06:29.058Z,7.53
2018-08-09T14:08:56.375Z,5.90
2018-08-09T14:11:23.687Z,6.60
2018-08-09T14:13:51.522Z,6.63
2018-08-09T14:16:18.923Z,6.20
2018-08-09T14:18:46.292Z,6.43
2018-08-09T14:21:14.270Z,6.73
2018-08-09T14:23:41.574Z,7.80
2018-08-09T14:26:08.992Z,8.47
2018-08-09T14:28:36.334Z,8.83
2018-08-09T14:31:03.763Z,7.40
2018-08-09T14:33:31.147Z,6.63
2018-08-09T14:35:58.439Z,7.90
2018-08-09T14:38:25.830Z,7.60
2018-08-09T14:40:53.159Z,8.17
2018-08-09T14:43:20.626Z,6.30
2018-08-09T14:45:48.526Z,5.67
2018-08-09T14:48:16.001Z,6.23
2018-08-09T14:50:43.455Z,6.20
2018-08-09T14:53:10.854Z,6.83
2018-08-09T14:55:38.895Z,5.90
2018-08-09T14:58:06.280Z,5.23
2018-08-09T15:00:34.193Z,6.50
2018-08-09T15:03:02.986Z,6.50
2018-08-09T15:05:30.271Z,5.67
2018-08-09T15:07:57.617Z,5.27
2018-08-09T15:10:24.943Z,6.10
2018-08-09T15:12:52.280Z,5.60
2018-08-09T15:15:19.906Z,5.63
2018-08-09T15:17:47.267Z,5.40
2018-08-09T15:20:14.750Z,4.80
2018-08-09T15:22:42.291Z,5.00
2018-08-09T15:25:10.160Z,4.97
2018-08-09T15:27:37.616Z,5.07
2018-08-09T15:30:07.922Z,4.67
2018-08-09T15:32:35.235Z,4.97
2018-08-09T15:35:02.632Z,4.40
2018-08-09T15:37:30.050Z,5.03
2018-08-09T15:39:57.391Z,4.70
2018-08-09T15:42:27.545Z,4.43
2018-08-09T15:44:55.967Z,4.27
2018-08-09T15:47:23.873Z,4.77
2018-08-09T15:49:51.151Z,5.70
2018-08-09T15:52:18.533Z,4.57
2018-08-09T15:54:45.866Z,4.70
2018-08-09T15:57:13.270Z,4.83
2018-08-09T15:59:40.664Z,4.80
2018-08-09T16:02:08.033Z,4.40
2018-08-09T16:04:35.363Z,4.40
2018-08-09T16:07:02.751Z,4.57
2018-08-09T16:09:30.206Z,4.67
2018-08-09T16:11:57.638Z,4.20
2018-08-09T16:14:25.470Z,4.20
2018-08-09T16:16:52.850Z,4.50
2018-08-09T16:19:20.217Z,5.00
2018-08-09T16:21:47.508Z,4.50
2018-08-09T16:24:14.874Z,3.77
2018-08-09T16:26:42.199Z,4.50
2018-08-09T16:29:09.666Z,4.80
2018-08-09T16:31:37.048Z,5.23
2018-08-09T16:34:04.425Z,4.50
2018-08-09T16:36:31.706Z,5.37
2018-08-09T16:38:59.063Z,5.80
2018-08-09T16:41:26.718Z,4.13
2018-08-09T16:43:54.054Z,5.20
2018-08-09T16:46:21.369Z,4.53
2018-08-09T16:48:48.704Z,4.73
2018-08-09T16:51:16.043Z,4.70
2018-08-09T16:53:43.567Z,4.30
2018-08-09T16:56:10.904Z,4.60
2018-08-09T16:58:38.260Z,5.53
2018-08-09T17:01:05.638Z,4.70
2018-08-09T17:03:32.983Z,4.50
2018-08-09T17:06:00.354Z,4.73
2018-08-09T17:08:27.846Z,4.13
2018-08-09T17:10:55.254Z,4.83
2018-08-09T17:13:22.569Z,4.87
2018-08-09T17:15:50.609Z,5.20
2018-08-09T17:18:17.910Z,4.93
2018-08-09T17:20:45.315Z,5.07
2018-08-09T17:23:12.694Z,5.80
2018-08-09T17:25:40.108Z,4.80
2018-08-09T17:28:07.366Z,5.20
2018-08-09T17:30:34.808Z,5.23
2018-08-09T17:33:03.025Z,6.00
2018-08-09T17:35:30.354Z,5.30
2018-08-09T17:37:57.634Z,6.80
2018-08-09T17:40:28.369Z,5.33
2018-08-09T17:42:56.597Z,4.80
2018-08-09T17:45:25.028Z,4.80
2018-08-09T17:47:52.484Z,4.90
2018-08-09T17:50:19.828Z,4.97
2018-08-09T17:52:47.154Z,4.57
2018-08-09T17:55:15.237Z,5.03
2018-08-09T17:57:43.292Z,4.60
2018-08-09T18:00:30.096Z,4.30
2018-08-09T18:02:57.487Z,4.10
2018-08-09T18:05:24.845Z,4.47
2018-08-09T18:07:52.660Z,4.67
2018-08-09T18:10:22.795Z,4.37
2018-08-09T18:12:50.295Z,4.83
2018-08-09T18:15:18.063Z,3.67
2018-08-09T18:17:45.458Z,3.90
2018-08-09T18:20:14.595Z,3.60
2018-08-09T18:22:42.508Z,3.53
2018-08-09T18:25:11.285Z,4.00
2018-08-09T18:27:40.841Z,3.10
2018-08-09T18:30:09.477Z,3.70
2018-08-09T18:32:37.146Z,3.40
2018-08-09T18:35:05.010Z,4.13
2018-08-09T18:37:32.311Z,3.60
2018-08-09T18:39:59.718Z,3.33
2018-08-09T18:42:27.140Z,3.50
2018-08-09T18:44:54.666Z,3.13
2018-08-09T18:47:22.140Z,4.87
2018-08-09T18:49:57.544Z,3.50
2018-08-09T18:52:25.666Z,3.97
2018-08-09T18:54:53.427Z,4.70
2018-08-09T18:57:20.930Z,4.90
2018-08-09T18:59:48.372Z,3.90
2018-08-09T19:02:15.839Z,4.50
2018-08-09T19:04:43.232Z,3.73
2018-08-09T19:07:10.605Z,3.93
2018-08-09T19:09:37.970Z,3.60
2018-08-09T19:12:09.927Z,4.60
2018-08-09T19:14:37.738Z,3.80
2018-08-09T19:17:05.134Z,3.77
2018-08-09T19:19:33.857Z,4.43
2018-08-09T19:22:07.009Z,4.57
2018-08-09T19:24:34.579Z,4.10
2018-08-09T19:27:06.424Z,4.60
2018-08-09T19:29:34.361Z,4.20
2018-08-09T19:32:02.591Z,4.20
2018-08-09T19:34:32.566Z,4.63
2018-08-09T19:37:00.047Z,3.97
2018-08-09T19:39:28.504Z,3.60
2018-08-09T19:41:56.010Z,3.43
2018-08-09T19:44:23.478Z,3.70
2018-08-09T19:46:51.518Z,2.63
2018-08-09T19:49:18.911Z,2.43
2018-08-09T19:51:46.467Z,2.57
2018-08-09T19:54:14.330Z,2.27
2018-08-09T19:56:41.794Z,2.63
2018-08-09T19:59:09.431Z,2.27
2018-08-09T20:01:37.598Z,3.07
2018-08-09T20:04:05.448Z,2.73
2018-08-09T20:06:33.046Z,2.60
2018-08-09T20:09:00.591Z,2.70
2018-08-09T20:11:28.279Z,2.50
2018-08-09T20:13:55.827Z,3.20
2018-08-09T20:16:27.627Z,3.10
2018-08-09T20:18:56.659Z,2.83
2018-08-09T20:21:24.135Z,3.27
2018-08-09T20:23:51.630Z,3.00
2018-08-09T20:26:19.143Z,3.23
2018-08-09T20:28:47.387Z,3.50
2018-08-09T20:31:14.844Z,3.23
2018-08-09T20:33:42.395Z,3.17
2018-08-09T20:36:09.988Z,3.30
2018-08-09T20:38:37.832Z,3.20
2018-08-09T20:41:05.367Z,2.60
2018-08-09T20:43:32.917Z,2.63
2018-08-09T20:46:00.392Z,3.93
2018-08-09T20:48:27.836Z,3.40
2018-08-09T20:50:55.343Z,2.60
2018-08-09T20:53:23.160Z,2.70
2018-08-09T20:55:50.663Z,2.67
2018-08-09T20:58:19.091Z,3.00
2018-08-09T21:00:46.516Z,2.23
2018-08-09T21:03:13.980Z,3.00
2018-08-09T21:05:41.450Z,2.63
2018-08-09T21:08:09.375Z,2.80
2018-08-09T21:10:36.797Z,2.50
2018-08-09T21:13:04.268Z,2.57
2018-08-09T21:15:32.704Z,2.70
2018-08-09T21:18:00.776Z,2.70
2018-08-09T21:20:28.927Z,2.80
2018-08-09T21:22:57.237Z,2.93
2018-08-09T21:25:24.698Z,3.10
2018-08-09T21:27:52.247Z,2.70
2018-08-09T21:30:22.340Z,2.50
2018-08-09T21:32:50.687Z,2.80
2018-08-09T21:35:18.885Z,2.80
2018-08-09T21:37:46.668Z,3.33
2018-08-09T21:40:14.717Z,3.60
2018-08-09T21:42:42.211Z,3.47
2018-08-09T21:45:12.488Z,3.50
2018-08-09T21:47:40.235Z,2.73
2018-08-09T21:50:10.865Z,3.10
2018-08-09T21:52:38.533Z,4.00
2018-08-09T21:55:06.553Z,3.27
2018-08-09T21:57:34.676Z,3.80
2018-08-09T22:00:04.933Z,3.50
2018-08-09T22:02:33.043Z,3.40
2018-08-09T22:07:47.637Z,4.15
2018-08-09T22:10:21.764Z,3.57
2018-08-09T22:12:54.952Z,2.93
2018-08-09T22:15:27.702Z,2.70
2018-08-09T22:18:00.789Z,2.40
2018-08-09T22:20:38.272Z,2.70
2018-08-09T22:23:05.791Z,1.87
2018-08-09T22:25:33.854Z,1.83
2018-08-09T22:28:01.289Z,1.60
2018-08-09T22:30:29.418Z,1.60
2018-08-09T22:32:56.810Z,1.47
2018-08-09T22:35:24.337Z,1.63
2018-08-09T22:37:51.793Z,2.47
2018-08-09T22:40:23.471Z,1.67
2018-08-09T22:42:50.908Z,1.70
2018-08-09T22:45:19.040Z,1.50
2018-08-09T22:47:47.510Z,1.30
2018-08-09T22:50:19.509Z,1.70
2018-08-09T22:52:47.319Z,1.40
2018-08-09T22:55:14.823Z,2.00
2018-08-09T22:57:42.199Z,1.63
2018-08-09T23:00:15.159Z,1.30
2018-08-09T23:02:42.680Z,1.60
2018-08-09T23:05:10.172Z,1.93
2018-08-09T23:07:37.681Z,1.83
2018-08-09T23:10:05.465Z,1.93
2018-08-09T23:12:32.839Z,2.20
2018-08-09T23:15:00.944Z,2.50
2018-08-09T23:17:28.636Z,2.60
2018-08-09T23:19:56.592Z,2.80
2018-08-09T23:22:24.658Z,2.50
2018-08-09T23:24:52.046Z,2.40
2018-08-09T23:27:22.769Z,2.73
2018-08-09T23:29:50.318Z,2.30
2018-08-09T23:32:17.851Z,2.07
2018-08-09T23:34:49.980Z,2.10
2018-08-09T23:37:17.487Z,2.20
2018-08-09T23:39:44.897Z,1.70
2018-08-09T23:42:12.439Z,2.40
2018-08-09T23:44:39.814Z,1.63
2018-08-09T23:47:07.944Z,2.12
2018-08-09T23:49:35.347Z,1.65
2018-08-09T23:52:02.717Z,1.80
2018-08-09T23:57:52.718Z,1.53
